sensor_id;sensor_type;location;lat;lon;timestamp;temperature;humidity
31819;DHT22;18384;48.860;9.188;2023-06-19T00:00:10;24.10;66.30
31819;DHT22;18384;48.860;9.188;2023-06-19T00:02:41;24.10;66.60
31819;DHT22;18384;48.860;9.188;2023-06-19T00:05:07;24.10;66.90
31819;DHT22;18384;48.860;9.188;2023-06-19T00:07:34;24.10;67.00
31819;DHT22;18384;48.860;9.188;2023-06-19T00:10:01;24.10;67.20
31819;DHT22;18384;48.860;9.188;2023-06-19T00:12:27;24.00;68.30
31819;DHT22;18384;48.860;9.188;2023-06-19T00:14:53;24.00;67.40
31819;DHT22;18384;48.860;9.188;2023-06-19T00:17:19;23.90;69.00
31819;DHT22;18384;48.860;9.188;2023-06-19T00:19:45;23.90;68.20
31819;DHT22;18384;48.860;9.188;2023-06-19T00:22:12;23.90;68.70
31819;DHT22;18384;48.860;9.188;2023-06-19T00:24:38;23.90;68.50
31819;DHT22;18384;48.860;9.188;2023-06-19T00:27:04;23.90;70.10
31819;DHT22;18384;48.860;9.188;2023-06-19T00:29:31;23.80;69.00
31819;DHT22;18384;48.860;9.188;2023-06-19T00:31:58;23.80;68.50
31819;DHT22;18384;48.860;9.188;2023-06-19T00:34:24;23.80;69.40
31819;DHT22;18384;48.860;9.188;2023-06-19T00:36:53;25.50;70.20
31819;DHT22;18384;48.860;9.188;2023-06-19T00:39:22;23.80;69.90
31819;DHT22;18384;48.860;9.188;2023-06-19T00:41:49;23.80;71.00
31819;DHT22;18384;48.860;9.188;2023-06-19T00:44:17;23.80;70.30
31819;DHT22;18384;48.860;9.188;2023-06-19T00:46:43;23.80;71.10
31819;DHT22;18384;48.860;9.188;2023-06-19T00:49:09;23.80;71.00
31819;DHT22;18384;48.860;9.188;2023-06-19T00:51:35;23.80;70.70
31819;DHT22;18384;48.860;9.188;2023-06-19T00:54:01;23.80;70.30
31819;DHT22;18384;48.860;9.188;2023-06-19T00:56:27;23.80;71.20
31819;DHT22;18384;48.860;9.188;2023-06-19T00:58:54;23.80;70.40
31819;DHT22;18384;48.860;9.188;2023-06-19T01:01:20;23.70;70.50
31819;DHT22;18384;48.860;9.188;2023-06-19T01:03:49;23.80;71.70
31819;DHT22;18384;48.860;9.188;2023-06-19T01:06:17;23.80;71.30
31819;DHT22;18384;48.860;9.188;2023-06-19T01:08:56;23.80;70.70
31819;DHT22;18384;48.860;9.188;2023-06-19T01:11:39;23.90;70.00
31819;DHT22;18384;48.860;9.188;2023-06-19T01:14:15;23.80;69.30
31819;DHT22;18384;48.860;9.188;2023-06-19T01:16:45;23.80;68.80
31819;DHT22;18384;48.860;9.188;2023-06-19T01:19:13;23.80;68.80
31819;DHT22;18384;48.860;9.188;2023-06-19T01:21:42;23.80;69.40
31819;DHT22;18384;48.860;9.188;2023-06-19T01:24:08;23.80;69.50
31819;DHT22;18384;48.860;9.188;2023-06-19T01:26:34;23.80;69.30
31819;DHT22;18384;48.860;9.188;2023-06-19T01:29:00;23.80;69.10
31819;DHT22;18384;48.860;9.188;2023-06-19T01:31:29;23.80;69.30
31819;DHT22;18384;48.860;9.188;2023-06-19T01:34:00;23.80;69.30
31819;DHT22;18384;48.860;9.188;2023-06-19T01:36:27;23.70;69.10
31819;DHT22;18384;48.860;9.188;2023-06-19T01:38:54;23.70;69.20
31819;DHT22;18384;48.860;9.188;2023-06-19T01:41:23;23.80;69.30
31819;DHT22;18384;48.860;9.188;2023-06-19T01:43:50;23.70;70.30
31819;DHT22;18384;48.860;9.188;2023-06-19T01:46:16;23.70;70.10
31819;DHT22;18384;48.860;9.188;2023-06-19T01:48:43;23.60;70.60
31819;DHT22;18384;48.860;9.188;2023-06-19T01:51:09;23.60;70.40
31819;DHT22;18384;48.860;9.188;2023-06-19T01:53:35;23.60;70.70
31819;DHT22;18384;48.860;9.188;2023-06-19T01:56:01;23.60;71.20
31819;DHT22;18384;48.860;9.188;2023-06-19T01:58:28;23.60;71.60
31819;DHT22;18384;48.860;9.188;2023-06-19T02:00:54;23.70;71.60
31819;DHT22;18384;48.860;9.188;2023-06-19T02:03:20;23.60;72.00
31819;DHT22;18384;48.860;9.188;2023-06-19T02:05:46;23.60;72.40
31819;DHT22;18384;48.860;9.188;2023-06-19T02:08:12;23.60;72.50
31819;DHT22;18384;48.860;9.188;2023-06-19T02:10:38;23.60;72.90
31819;DHT22;18384;48.860;9.188;2023-06-19T02:13:04;23.60;73.10
31819;DHT22;18384;48.860;9.188;2023-06-19T02:15:30;23.60;73.10
31819;DHT22;18384;48.860;9.188;2023-06-19T02:17:56;23.60;73.40
31819;DHT22;18384;48.860;9.188;2023-06-19T02:20:22;23.50;73.80
31819;DHT22;18384;48.860;9.188;2023-06-19T02:22:50;23.50;74.00
31819;DHT22;18384;48.860;9.188;2023-06-19T02:25:16;22.60;73.80
31819;DHT22;18384;48.860;9.188;2023-06-19T02:27:42;23.50;74.70
31819;DHT22;18384;48.860;9.188;2023-06-19T02:30:08;23.50;74.90
31819;DHT22;18384;48.860;9.188;2023-06-19T02:32:35;23.40;75.30
31819;DHT22;18384;48.860;9.188;2023-06-19T02:35:02;23.50;75.30
31819;DHT22;18384;48.860;9.188;2023-06-19T02:37:30;23.40;75.90
31819;DHT22;18384;48.860;9.188;2023-06-19T02:39:55;23.50;75.40
31819;DHT22;18384;48.860;9.188;2023-06-19T02:42:22;23.50;76.00
31819;DHT22;18384;48.860;9.188;2023-06-19T02:44:48;23.50;75.10
31819;DHT22;18384;48.860;9.188;2023-06-19T02:47:14;23.50;75.00
31819;DHT22;18384;48.860;9.188;2023-06-19T02:49:40;23.50;75.30
31819;DHT22;18384;48.860;9.188;2023-06-19T02:52:07;23.50;76.20
31819;DHT22;18384;48.860;9.188;2023-06-19T02:54:34;23.50;76.00
31819;DHT22;18384;48.860;9.188;2023-06-19T02:57:00;23.50;76.10
31819;DHT22;18384;48.860;9.188;2023-06-19T02:59:26;23.50;76.20
31819;DHT22;18384;48.860;9.188;2023-06-19T03:01:52;23.50;76.10
31819;DHT22;18384;48.860;9.188;2023-06-19T03:04:18;23.40;76.30
31819;DHT22;18384;48.860;9.188;2023-06-19T03:06:44;23.50;76.30
31819;DHT22;18384;48.860;9.188;2023-06-19T03:09:10;23.50;76.00
31819;DHT22;18384;48.860;9.188;2023-06-19T03:11:39;23.50;76.30
31819;DHT22;18384;48.860;9.188;2023-06-19T03:14:05;23.50;76.50
31819;DHT22;18384;48.860;9.188;2023-06-19T03:16:33;23.50;76.10
31819;DHT22;18384;48.860;9.188;2023-06-19T03:18:59;23.40;76.30
31819;DHT22;18384;48.860;9.188;2023-06-19T03:21:25;23.40;76.10
31819;DHT22;18384;48.860;9.188;2023-06-19T03:23:52;23.40;76.10
31819;DHT22;18384;48.860;9.188;2023-06-19T03:26:18;23.40;76.50
31819;DHT22;18384;48.860;9.188;2023-06-19T03:28:45;23.40;77.30
31819;DHT22;18384;48.860;9.188;2023-06-19T03:31:15;23.40;76.20
31819;DHT22;18384;48.860;9.188;2023-06-19T03:33:41;23.40;76.30
31819;DHT22;18384;48.860;9.188;2023-06-19T03:36:07;23.40;76.20
31819;DHT22;18384;48.860;9.188;2023-06-19T03:38:33;23.40;75.80
31819;DHT22;18384;48.860;9.188;2023-06-19T03:40:59;23.40;75.70
31819;DHT22;18384;48.860;9.188;2023-06-19T03:43:25;23.40;76.50
31819;DHT22;18384;48.860;9.188;2023-06-19T03:45:51;23.40;76.60
31819;DHT22;18384;48.860;9.188;2023-06-19T03:48:17;23.40;75.30
31819;DHT22;18384;48.860;9.188;2023-06-19T03:50:43;23.40;76.20
31819;DHT22;18384;48.860;9.188;2023-06-19T03:53:09;23.40;75.80
31819;DHT22;18384;48.860;9.188;2023-06-19T03:55:35;23.30;75.50
31819;DHT22;18384;48.860;9.188;2023-06-19T03:58:01;23.30;74.70
31819;DHT22;18384;48.860;9.188;2023-06-19T04:00:27;23.20;74.90
31819;DHT22;18384;48.860;9.188;2023-06-19T04:02:53;23.20;74.80
31819;DHT22;18384;48.860;9.188;2023-06-19T04:05:19;23.20;75.00
31819;DHT22;18384;48.860;9.188;2023-06-19T04:07:45;23.10;74.90
31819;DHT22;18384;48.860;9.188;2023-06-19T04:10:11;23.20;75.20
31819;DHT22;18384;48.860;9.188;2023-06-19T04:12:37;23.10;75.20
31819;DHT22;18384;48.860;9.188;2023-06-19T04:15:05;23.10;75.70
31819;DHT22;18384;48.860;9.188;2023-06-19T04:17:31;23.10;75.60
31819;DHT22;18384;48.860;9.188;2023-06-19T04:19:57;23.00;75.70
31819;DHT22;18384;48.860;9.188;2023-06-19T04:22:23;23.00;76.10
31819;DHT22;18384;48.860;9.188;2023-06-19T04:24:49;23.00;76.30
31819;DHT22;18384;48.860;9.188;2023-06-19T04:27:15;22.90;76.40
31819;DHT22;18384;48.860;9.188;2023-06-19T04:29:41;23.00;76.90
31819;DHT22;18384;48.860;9.188;2023-06-19T04:32:07;23.00;77.10
31819;DHT22;18384;48.860;9.188;2023-06-19T04:34:37;23.00;77.40
31819;DHT22;18384;48.860;9.188;2023-06-19T04:37:04;23.00;77.60
31819;DHT22;18384;48.860;9.188;2023-06-19T04:39:30;23.10;77.50
31819;DHT22;18384;48.860;9.188;2023-06-19T04:41:56;23.00;77.70
31819;DHT22;18384;48.860;9.188;2023-06-19T04:44:22;23.00;77.80
31819;DHT22;18384;48.860;9.188;2023-06-19T04:46:48;23.10;78.10
31819;DHT22;18384;48.860;9.188;2023-06-19T04:49:14;23.00;78.10
31819;DHT22;18384;48.860;9.188;2023-06-19T04:51:40;23.00;78.10
31819;DHT22;18384;48.860;9.188;2023-06-19T04:54:06;23.10;77.80
31819;DHT22;18384;48.860;9.188;2023-06-19T04:56:32;23.10;78.00
31819;DHT22;18384;48.860;9.188;2023-06-19T04:58:58;23.30;78.00
31819;DHT22;18384;48.860;9.188;2023-06-19T05:01:25;23.50;77.90
31819;DHT22;18384;48.860;9.188;2023-06-19T05:03:55;23.70;77.50
31819;DHT22;18384;48.860;9.188;2023-06-19T05:06:25;23.80;77.00
31819;DHT22;18384;48.860;9.188;2023-06-19T05:08:51;23.90;76.90
31819;DHT22;18384;48.860;9.188;2023-06-19T05:11:17;24.00;76.60
31819;DHT22;18384;48.860;9.188;2023-06-19T05:13:44;24.10;77.30
31819;DHT22;18384;48.860;9.188;2023-06-19T05:16:10;24.20;76.50
31819;DHT22;18384;48.860;9.188;2023-06-19T05:18:36;24.40;76.80
31819;DHT22;18384;48.860;9.188;2023-06-19T05:21:02;24.60;77.40
31819;DHT22;18384;48.860;9.188;2023-06-19T05:23:28;24.70;76.00
31819;DHT22;18384;48.860;9.188;2023-06-19T05:25:54;24.80;76.10
31819;DHT22;18384;48.860;9.188;2023-06-19T05:28:20;24.00;75.80
31819;DHT22;18384;48.860;9.188;2023-06-19T05:30:46;24.90;76.60
31819;DHT22;18384;48.860;9.188;2023-06-19T05:33:12;25.50;76.30
31819;DHT22;18384;48.860;9.188;2023-06-19T05:35:41;24.90;76.40
31819;DHT22;18384;48.860;9.188;2023-06-19T05:38:08;24.80;75.50
31819;DHT22;18384;48.860;9.188;2023-06-19T05:40:34;24.80;75.80
31819;DHT22;18384;48.860;9.188;2023-06-19T05:43:00;24.80;76.90
31819;DHT22;18384;48.860;9.188;2023-06-19T05:45:26;25.00;76.40
31819;DHT22;18384;48.860;9.188;2023-06-19T05:47:52;25.10;76.00
31819;DHT22;18384;48.860;9.188;2023-06-19T05:50:18;25.20;75.60
31819;DHT22;18384;48.860;9.188;2023-06-19T05:52:44;25.20;75.10
31819;DHT22;18384;48.860;9.188;2023-06-19T05:55:10;25.20;75.20
31819;DHT22;18384;48.860;9.188;2023-06-19T05:57:36;25.20;75.80
31819;DHT22;18384;48.860;9.188;2023-06-19T06:00:02;25.20;75.30
31819;DHT22;18384;48.860;9.188;2023-06-19T06:02:29;25.20;75.50
31819;DHT22;18384;48.860;9.188;2023-06-19T06:04:55;25.30;74.60
31819;DHT22;18384;48.860;9.188;2023-06-19T06:07:21;25.30;74.80
31819;DHT22;18384;48.860;9.188;2023-06-19T06:09:47;25.20;76.40
31819;DHT22;18384;48.860;9.188;2023-06-19T06:12:13;25.20;76.60
31819;DHT22;18384;48.860;9.188;2023-06-19T06:14:42;25.20;76.80
31819;DHT22;18384;48.860;9.188;2023-06-19T06:17:08;25.40;77.20
31819;DHT22;18384;48.860;9.188;2023-06-19T06:19:35;25.40;75.40
31819;DHT22;18384;48.860;9.188;2023-06-19T06:22:02;25.70;74.60
31819;DHT22;18384;48.860;9.188;2023-06-19T06:24:28;25.60;74.30
31819;DHT22;18384;48.860;9.188;2023-06-19T06:26:54;25.60;74.50
31819;DHT22;18384;48.860;9.188;2023-06-19T06:29:20;23.90;73.60
31819;DHT22;18384;48.860;9.188;2023-06-19T06:31:46;25.70;74.20
31819;DHT22;18384;48.860;9.188;2023-06-19T06:34:12;25.80;76.20
31819;DHT22;18384;48.860;9.188;2023-06-19T06:36:39;27.20;75.90
31819;DHT22;18384;48.860;9.188;2023-06-19T06:39:05;26.50;75.30
31819;DHT22;18384;48.860;9.188;2023-06-19T06:41:31;26.20;74.40
31819;DHT22;18384;48.860;9.188;2023-06-19T06:43:57;26.10;73.70
31819;DHT22;18384;48.860;9.188;2023-06-19T06:46:23;26.10;74.10
31819;DHT22;18384;48.860;9.188;2023-06-19T06:48:49;26.10;75.60
31819;DHT22;18384;48.860;9.188;2023-06-19T06:51:15;26.10;74.50
31819;DHT22;18384;48.860;9.188;2023-06-19T06:53:41;26.10;74.20
31819;DHT22;18384;48.860;9.188;2023-06-19T06:56:07;25.80;74.10
31819;DHT22;18384;48.860;9.188;2023-06-19T06:58:33;26.10;74.50
31819;DHT22;18384;48.860;9.188;2023-06-19T07:00:59;26.20;74.20
31819;DHT22;18384;48.860;9.188;2023-06-19T07:03:25;26.30;73.90
31819;DHT22;18384;48.860;9.188;2023-06-19T07:05:51;26.60;73.40
31819;DHT22;18384;48.860;9.188;2023-06-19T07:08:18;26.80;73.50
31819;DHT22;18384;48.860;9.188;2023-06-19T07:10:43;26.80;73.10
31819;DHT22;18384;48.860;9.188;2023-06-19T07:13:10;26.80;72.40
31819;DHT22;18384;48.860;9.188;2023-06-19T07:15:37;26.90;71.50
31819;DHT22;18384;48.860;9.188;2023-06-19T07:18:02;26.90;71.50
31819;DHT22;18384;48.860;9.188;2023-06-19T07:20:28;27.00;70.70
31819;DHT22;18384;48.860;9.188;2023-06-19T07:22:54;26.90;71.40
31819;DHT22;18384;48.860;9.188;2023-06-19T07:25:20;26.60;71.30
31819;DHT22;18384;48.860;9.188;2023-06-19T07:27:49;26.60;71.70
31819;DHT22;18384;48.860;9.188;2023-06-19T07:30:15;26.50;72.20
31819;DHT22;18384;48.860;9.188;2023-06-19T07:32:41;26.60;72.50
31819;DHT22;18384;48.860;9.188;2023-06-19T07:35:07;26.40;72.10
31819;DHT22;18384;48.860;9.188;2023-06-19T07:37:33;26.30;72.30
31819;DHT22;18384;48.860;9.188;2023-06-19T07:39:59;26.40;72.80
31819;DHT22;18384;48.860;9.188;2023-06-19T07:42:25;26.80;73.00
31819;DHT22;18384;48.860;9.188;2023-06-19T07:44:51;26.80;72.40
31819;DHT22;18384;48.860;9.188;2023-06-19T07:47:17;26.90;71.30
31819;DHT22;18384;48.860;9.188;2023-06-19T07:49:44;26.90;71.30
31819;DHT22;18384;48.860;9.188;2023-06-19T07:52:10;26.90;71.20
31819;DHT22;18384;48.860;9.188;2023-06-19T07:54:36;26.90;70.80
31819;DHT22;18384;48.860;9.188;2023-06-19T07:57:12;26.80;71.00
31819;DHT22;18384;48.860;9.188;2023-06-19T07:59:38;26.70;71.40
31819;DHT22;18384;48.860;9.188;2023-06-19T08:02:04;26.60;71.50
31819;DHT22;18384;48.860;9.188;2023-06-19T08:04:30;26.50;72.00
31819;DHT22;18384;48.860;9.188;2023-06-19T08:06:56;26.30;72.20
31819;DHT22;18384;48.860;9.188;2023-06-19T08:09:22;26.30;72.90
31819;DHT22;18384;48.860;9.188;2023-06-19T08:11:48;26.20;72.40
31819;DHT22;18384;48.860;9.188;2023-06-19T08:14:14;26.20;72.60
31819;DHT22;18384;48.860;9.188;2023-06-19T08:16:40;26.20;72.70
31819;DHT22;18384;48.860;9.188;2023-06-19T08:19:06;26.10;73.40
31819;DHT22;18384;48.860;9.188;2023-06-19T08:21:32;26.10;73.50
31819;DHT22;18384;48.860;9.188;2023-06-19T08:23:58;26.20;73.00
31819;DHT22;18384;48.860;9.188;2023-06-19T08:26:24;26.50;72.60
31819;DHT22;18384;48.860;9.188;2023-06-19T08:28:50;26.50;73.00
31819;DHT22;18384;48.860;9.188;2023-06-19T08:31:16;26.60;72.10
31819;DHT22;18384;48.860;9.188;2023-06-19T08:33:42;26.50;71.90
31819;DHT22;18384;48.860;9.188;2023-06-19T08:36:08;26.60;72.00
31819;DHT22;18384;48.860;9.188;2023-06-19T08:38:34;26.80;73.30
31819;DHT22;18384;48.860;9.188;2023-06-19T08:41:00;26.80;71.80
31819;DHT22;18384;48.860;9.188;2023-06-19T08:43:26;26.70;72.00
31819;DHT22;18384;48.860;9.188;2023-06-19T08:46:25;26.80;71.80
31819;DHT22;18384;48.860;9.188;2023-06-19T08:48:54;26.90;71.40
31819;DHT22;18384;48.860;9.188;2023-06-19T08:51:20;27.00;71.70
31819;DHT22;18384;48.860;9.188;2023-06-19T08:53:47;27.00;70.40
31819;DHT22;18384;48.860;9.188;2023-06-19T08:56:17;27.00;71.20
31819;DHT22;18384;48.860;9.188;2023-06-19T08:58:43;27.00;71.20
31819;DHT22;18384;48.860;9.188;2023-06-19T09:01:09;26.90;71.40
31819;DHT22;18384;48.860;9.188;2023-06-19T09:03:35;26.80;71.80
31819;DHT22;18384;48.860;9.188;2023-06-19T09:06:06;26.80;72.00
31819;DHT22;18384;48.860;9.188;2023-06-19T09:08:33;26.90;71.80
31819;DHT22;18384;48.860;9.188;2023-06-19T09:11:02;26.90;70.80
31819;DHT22;18384;48.860;9.188;2023-06-19T09:13:29;27.00;72.10
31819;DHT22;18384;48.860;9.188;2023-06-19T09:16:13;27.00;70.60
31819;DHT22;18384;48.860;9.188;2023-06-19T09:18:46;27.10;70.00
31819;DHT22;18384;48.860;9.188;2023-06-19T09:21:17;27.10;70.40
31819;DHT22;18384;48.860;9.188;2023-06-19T09:23:44;27.20;70.80
31819;DHT22;18384;48.860;9.188;2023-06-19T09:26:16;27.20;71.90
31819;DHT22;18384;48.860;9.188;2023-06-19T09:28:44;27.30;70.10
31819;DHT22;18384;48.860;9.188;2023-06-19T09:31:10;27.40;70.50
31819;DHT22;18384;48.860;9.188;2023-06-19T09:33:38;27.40;70.60
31819;DHT22;18384;48.860;9.188;2023-06-19T09:36:05;27.50;69.40
31819;DHT22;18384;48.860;9.188;2023-06-19T09:38:32;27.50;68.80
31819;DHT22;18384;48.860;9.188;2023-06-19T09:41:02;27.60;70.30
31819;DHT22;18384;48.860;9.188;2023-06-19T09:43:33;27.60;69.10
31819;DHT22;18384;48.860;9.188;2023-06-19T09:46:03;27.60;69.40
31819;DHT22;18384;48.860;9.188;2023-06-19T09:48:31;27.60;69.70
31819;DHT22;18384;48.860;9.188;2023-06-19T09:51:23;27.70;71.10
31819;DHT22;18384;48.860;9.188;2023-06-19T09:53:56;27.80;70.30
31819;DHT22;18384;48.860;9.188;2023-06-19T09:56:24;27.90;70.50
31819;DHT22;18384;48.860;9.188;2023-06-19T09:58:53;28.00;69.60
31819;DHT22;18384;48.860;9.188;2023-06-19T10:01:20;28.10;69.70
31819;DHT22;18384;48.860;9.188;2023-06-19T10:03:46;28.00;70.70
31819;DHT22;18384;48.860;9.188;2023-06-19T10:06:13;28.10;70.40
31819;DHT22;18384;48.860;9.188;2023-06-19T10:08:43;28.10;69.70
31819;DHT22;18384;48.860;9.188;2023-06-19T10:11:11;27.90;70.20
31819;DHT22;18384;48.860;9.188;2023-06-19T10:13:39;27.90;70.10
31819;DHT22;18384;48.860;9.188;2023-06-19T10:16:27;27.80;70.50
31819;DHT22;18384;48.860;9.188;2023-06-19T10:18:53;27.80;71.30
31819;DHT22;18384;48.860;9.188;2023-06-19T10:21:20;27.90;71.90
31819;DHT22;18384;48.860;9.188;2023-06-19T10:23:53;28.00;70.30
31819;DHT22;18384;48.860;9.188;2023-06-19T10:26:29;28.00;70.20
31819;DHT22;18384;48.860;9.188;2023-06-19T10:28:59;27.90;70.50
31819;DHT22;18384;48.860;9.188;2023-06-19T10:31:25;27.80;70.50
31819;DHT22;18384;48.860;9.188;2023-06-19T10:33:54;27.80;70.80
31819;DHT22;18384;48.860;9.188;2023-06-19T10:36:20;27.70;71.70
31819;DHT22;18384;48.860;9.188;2023-06-19T10:38:48;27.70;71.10
31819;DHT22;18384;48.860;9.188;2023-06-19T10:41:18;27.60;72.00
31819;DHT22;18384;48.860;9.188;2023-06-19T10:43:55;27.70;71.60
31819;DHT22;18384;48.860;9.188;2023-06-19T10:46:23;27.70;71.50
31819;DHT22;18384;48.860;9.188;2023-06-19T10:48:50;27.80;71.30
31819;DHT22;18384;48.860;9.188;2023-06-19T10:51:19;27.80;71.10
31819;DHT22;18384;48.860;9.188;2023-06-19T10:53:46;27.70;70.90
31819;DHT22;18384;48.860;9.188;2023-06-19T10:56:12;27.60;70.70
31819;DHT22;18384;48.860;9.188;2023-06-19T10:58:38;27.70;71.60
31819;DHT22;18384;48.860;9.188;2023-06-19T11:01:04;27.70;70.70
31819;DHT22;18384;48.860;9.188;2023-06-19T11:03:31;27.80;70.80
31819;DHT22;18384;48.860;9.188;2023-06-19T11:05:57;27.80;71.50
31819;DHT22;18384;48.860;9.188;2023-06-19T11:08:23;27.90;71.80
31819;DHT22;18384;48.860;9.188;2023-06-19T11:10:50;28.00;71.30
31819;DHT22;18384;48.860;9.188;2023-06-19T11:13:17;28.10;71.10
31819;DHT22;18384;48.860;9.188;2023-06-19T11:15:44;28.20;71.40
31819;DHT22;18384;48.860;9.188;2023-06-19T11:18:10;28.30;70.30
31819;DHT22;18384;48.860;9.188;2023-06-19T11:20:50;28.20;70.20
31819;DHT22;18384;48.860;9.188;2023-06-19T11:23:24;28.20;70.00
31819;DHT22;18384;48.860;9.188;2023-06-19T11:25:54;28.20;70.20
31819;DHT22;18384;48.860;9.188;2023-06-19T11:28:22;28.00;70.00
31819;DHT22;18384;48.860;9.188;2023-06-19T11:30:59;28.10;70.60
31819;DHT22;18384;48.860;9.188;2023-06-19T11:33:26;28.20;70.80
31819;DHT22;18384;48.860;9.188;2023-06-19T11:35:53;28.20;70.90
31819;DHT22;18384;48.860;9.188;2023-06-19T11:38:23;28.20;71.10
31819;DHT22;18384;48.860;9.188;2023-06-19T11:40:51;28.20;69.80
31819;DHT22;18384;48.860;9.188;2023-06-19T11:43:27;28.30;69.80
31819;DHT22;18384;48.860;9.188;2023-06-19T11:46:16;28.30;70.00
31819;DHT22;18384;48.860;9.188;2023-06-19T11:48:44;28.40;69.60
31819;DHT22;18384;48.860;9.188;2023-06-19T11:51:10;28.60;70.40
31819;DHT22;18384;48.860;9.188;2023-06-19T11:53:36;28.70;69.50
31819;DHT22;18384;48.860;9.188;2023-06-19T11:56:02;28.80;68.90
31819;DHT22;18384;48.860;9.188;2023-06-19T11:58:28;28.90;68.50
31819;DHT22;18384;48.860;9.188;2023-06-19T12:00:54;29.00;68.60
31819;DHT22;18384;48.860;9.188;2023-06-19T12:03:21;29.10;68.20
31819;DHT22;18384;48.860;9.188;2023-06-19T12:05:47;29.20;67.90
31819;DHT22;18384;48.860;9.188;2023-06-19T12:08:13;29.10;67.70
31819;DHT22;18384;48.860;9.188;2023-06-19T12:10:39;29.20;67.80
31819;DHT22;18384;48.860;9.188;2023-06-19T12:13:05;29.30;68.80
31819;DHT22;18384;48.860;9.188;2023-06-19T12:15:31;29.20;68.90
31819;DHT22;18384;48.860;9.188;2023-06-19T12:17:57;29.30;68.00
31819;DHT22;18384;48.860;9.188;2023-06-19T12:20:24;29.30;67.90
31819;DHT22;18384;48.860;9.188;2023-06-19T12:22:50;29.40;68.10
31819;DHT22;18384;48.860;9.188;2023-06-19T12:25:16;29.20;68.10
31819;DHT22;18384;48.860;9.188;2023-06-19T12:27:42;29.20;68.70
31819;DHT22;18384;48.860;9.188;2023-06-19T12:30:08;29.20;68.00
31819;DHT22;18384;48.860;9.188;2023-06-19T12:32:34;29.20;69.20
31819;DHT22;18384;48.860;9.188;2023-06-19T12:35:00;29.20;67.90
31819;DHT22;18384;48.860;9.188;2023-06-19T12:37:28;29.20;67.70
31819;DHT22;18384;48.860;9.188;2023-06-19T12:39:54;29.10;67.60
31819;DHT22;18384;48.860;9.188;2023-06-19T12:42:20;29.00;67.90
31819;DHT22;18384;48.860;9.188;2023-06-19T12:44:46;29.20;68.60
31819;DHT22;18384;48.860;9.188;2023-06-19T12:47:12;29.20;67.40
31819;DHT22;18384;48.860;9.188;2023-06-19T12:49:41;29.40;67.30
31819;DHT22;18384;48.860;9.188;2023-06-19T12:54:53;29.50;67.40
31819;DHT22;18384;48.860;9.188;2023-06-19T12:57:19;29.60;67.20
31819;DHT22;18384;48.860;9.188;2023-06-19T12:59:45;29.70;67.10
31819;DHT22;18384;48.860;9.188;2023-06-19T13:02:11;29.50;67.00
31819;DHT22;18384;48.860;9.188;2023-06-19T13:04:37;29.50;66.80
31819;DHT22;18384;48.860;9.188;2023-06-19T13:07:03;29.60;66.90
31819;DHT22;18384;48.860;9.188;2023-06-19T13:09:29;29.60;67.00
31819;DHT22;18384;48.860;9.188;2023-06-19T13:11:55;29.70;68.80
31819;DHT22;18384;48.860;9.188;2023-06-19T13:14:21;29.80;66.60
31819;DHT22;18384;48.860;9.188;2023-06-19T13:16:47;29.90;67.70
31819;DHT22;18384;48.860;9.188;2023-06-19T13:19:13;29.70;66.60
31819;DHT22;18384;48.860;9.188;2023-06-19T13:21:40;29.70;67.40
31819;DHT22;18384;48.860;9.188;2023-06-19T13:24:06;29.60;67.00
31819;DHT22;18384;48.860;9.188;2023-06-19T13:26:32;29.70;67.90
31819;DHT22;18384;48.860;9.188;2023-06-19T13:28:58;29.80;68.00
31819;DHT22;18384;48.860;9.188;2023-06-19T13:31:26;29.60;67.00
31819;DHT22;18384;48.860;9.188;2023-06-19T13:33:52;29.60;68.00
31819;DHT22;18384;48.860;9.188;2023-06-19T13:36:18;29.50;67.60
31819;DHT22;18384;48.860;9.188;2023-06-19T13:38:45;29.50;67.60
31819;DHT22;18384;48.860;9.188;2023-06-19T13:41:12;29.40;67.30
31819;DHT22;18384;48.860;9.188;2023-06-19T13:43:38;29.50;67.60
31819;DHT22;18384;48.860;9.188;2023-06-19T13:46:07;29.40;67.80
31819;DHT22;18384;48.860;9.188;2023-06-19T13:48:33;29.40;68.40
31819;DHT22;18384;48.860;9.188;2023-06-19T13:51:00;29.40;68.00
31819;DHT22;18384;48.860;9.188;2023-06-19T13:53:26;29.30;67.70
31819;DHT22;18384;48.860;9.188;2023-06-19T13:55:54;29.20;68.10
31819;DHT22;18384;48.860;9.188;2023-06-19T13:58:20;29.20;68.30
31819;DHT22;18384;48.860;9.188;2023-06-19T14:00:45;29.10;67.80
31819;DHT22;18384;48.860;9.188;2023-06-19T14:03:12;29.20;68.50
31819;DHT22;18384;48.860;9.188;2023-06-19T14:05:38;29.10;68.40
31819;DHT22;18384;48.860;9.188;2023-06-19T14:08:04;29.10;68.30
31819;DHT22;18384;48.860;9.188;2023-06-19T14:10:30;29.20;67.90
31819;DHT22;18384;48.860;9.188;2023-06-19T14:12:56;29.30;67.40
31819;DHT22;18384;48.860;9.188;2023-06-19T14:15:23;29.40;67.70
31819;DHT22;18384;48.860;9.188;2023-06-19T14:17:49;29.30;66.80
31819;DHT22;18384;48.860;9.188;2023-06-19T14:20:15;29.40;66.80
31819;DHT22;18384;48.860;9.188;2023-06-19T14:22:41;29.40;66.90
31819;DHT22;18384;48.860;9.188;2023-06-19T14:25:07;29.40;66.80
31819;DHT22;18384;48.860;9.188;2023-06-19T14:27:33;29.50;66.90
31819;DHT22;18384;48.860;9.188;2023-06-19T14:29:59;29.50;66.50
31819;DHT22;18384;48.860;9.188;2023-06-19T14:32:25;29.50;66.40
31819;DHT22;18384;48.860;9.188;2023-06-19T14:34:51;29.70;66.20
31819;DHT22;18384;48.860;9.188;2023-06-19T14:37:17;29.90;66.30
31819;DHT22;18384;48.860;9.188;2023-06-19T14:39:43;30.00;66.20
31819;DHT22;18384;48.860;9.188;2023-06-19T14:42:09;30.10;66.20
31819;DHT22;18384;48.860;9.188;2023-06-19T14:44:36;30.20;65.30
31819;DHT22;18384;48.860;9.188;2023-06-19T14:47:03;30.30;65.40
31819;DHT22;18384;48.860;9.188;2023-06-19T14:49:29;30.30;65.70
31819;DHT22;18384;48.860;9.188;2023-06-19T14:51:55;30.20;65.80
31819;DHT22;18384;48.860;9.188;2023-06-19T14:54:22;30.30;66.00
31819;DHT22;18384;48.860;9.188;2023-06-19T14:56:48;30.30;65.70
31819;DHT22;18384;48.860;9.188;2023-06-19T14:59:15;30.30;65.80
31819;DHT22;18384;48.860;9.188;2023-06-19T15:01:41;30.20;65.20
31819;DHT22;18384;48.860;9.188;2023-06-19T15:04:07;30.30;65.20
31819;DHT22;18384;48.860;9.188;2023-06-19T15:06:33;30.30;64.80
31819;DHT22;18384;48.860;9.188;2023-06-19T15:08:59;30.30;65.30
31819;DHT22;18384;48.860;9.188;2023-06-19T15:11:25;30.30;66.00
31819;DHT22;18384;48.860;9.188;2023-06-19T15:13:51;30.30;66.10
31819;DHT22;18384;48.860;9.188;2023-06-19T15:16:17;30.10;66.30
31819;DHT22;18384;48.860;9.188;2023-06-19T15:18:45;30.20;66.70
31819;DHT22;18384;48.860;9.188;2023-06-19T15:21:11;30.20;66.70
31819;DHT22;18384;48.860;9.188;2023-06-19T15:23:37;30.30;66.90
31819;DHT22;18384;48.860;9.188;2023-06-19T15:26:03;30.30;66.40
31819;DHT22;18384;48.860;9.188;2023-06-19T15:28:32;30.30;66.60
31819;DHT22;18384;48.860;9.188;2023-06-19T15:30:58;30.20;66.10